createdAt,value
2023-02-28T00:02:44.252Z,98808.00
2023-02-28T00:06:45.489Z,98805.00
2023-02-28T00:10:46.450Z,98801.00
2023-02-28T00:14:47.648Z,98805.00
2023-02-28T00:18:49.541Z,98797.00
2023-02-28T00:22:52.538Z,98796.00
2023-02-28T00:26:53.604Z,98797.00
2023-02-28T00:30:54.780Z,98796.00
2023-02-28T00:34:56.367Z,98796.00
2023-02-28T00:38:57.584Z,98796.00
2023-02-28T00:42:58.539Z,98788.00
2023-02-28T00:47:00.553Z,98788.00
2023-02-28T00:51:01.879Z,98794.00
2023-02-28T00:55:03.227Z,98800.00
2023-02-28T00:59:04.441Z,98794.00
2023-02-28T01:03:05.667Z,98799.00
2023-02-28T01:07:06.993Z,98589.00
2023-02-28T01:15:18.196Z,98800.00
2023-02-28T01:19:19.127Z,98792.00
2023-02-28T01:23:23.705Z,98794.00
2023-02-28T01:27:24.953Z,98786.00
2023-02-28T01:31:26.739Z,98784.00
2023-02-28T01:35:28.008Z,98787.00
2023-02-28T01:39:29.192Z,98779.00
2023-02-28T01:43:33.332Z,98776.00
2023-02-28T01:47:41.156Z,98779.00
2023-02-28T01:51:51.580Z,98770.00
2023-02-28T01:55:54.233Z,98779.00
2023-02-28T02:00:01.499Z,98773.00
2023-02-28T02:04:04.254Z,98776.00
2023-02-28T02:08:09.075Z,98770.00
2023-02-28T02:12:23.033Z,98773.00
2023-02-28T02:16:36.992Z,98761.00
2023-02-28T02:20:58.045Z,98758.00
2023-02-28T02:25:26.768Z,98755.00
2023-02-28T02:29:34.306Z,98752.00
2023-02-28T02:34:12.339Z,98769.00
2023-02-28T02:38:23.460Z,98753.00
2023-02-28T02:42:28.452Z,98755.00
2023-02-28T02:46:36.302Z,98757.00
2023-02-28T02:50:41.063Z,98746.00
2023-02-28T02:54:45.464Z,98742.00
2023-02-28T02:58:49.919Z,98745.00
2023-02-28T03:02:54.711Z,98747.00
2023-02-28T03:06:55.872Z,98749.00
2023-02-28T03:11:00.653Z,98758.00
2023-02-28T03:15:14.719Z,98760.00
2023-02-28T03:19:36.563Z,98754.00
2023-02-28T03:23:41.518Z,98751.00
2023-02-28T03:28:02.979Z,98748.00
2023-02-28T03:32:08.414Z,98749.00
2023-02-28T03:36:16.144Z,98743.00
2023-02-28T03:40:22.825Z,98755.00
2023-02-28T03:44:42.539Z,98754.00
2023-02-28T03:48:48.538Z,98744.00
2023-02-28T03:52:53.369Z,98755.00
2023-02-28T03:57:10.328Z,98760.00
2023-02-28T04:01:15.274Z,98755.00
2023-02-28T04:05:16.577Z,98751.00
2023-02-28T04:09:18.415Z,98744.00
2023-02-28T04:13:19.527Z,98758.00
2023-02-28T04:17:20.513Z,98755.00
2023-02-28T04:21:22.364Z,98745.00
2023-02-28T04:25:23.499Z,98754.00
2023-02-28T04:29:28.299Z,98753.00
2023-02-28T04:33:30.577Z,98748.00
2023-02-28T04:37:33.661Z,98755.00
2023-02-28T04:41:34.947Z,98761.00
2023-02-28T04:45:36.194Z,98757.00
2023-02-28T04:49:37.195Z,98753.00
2023-02-28T04:53:39.658Z,98746.00
2023-02-28T04:57:42.552Z,98753.00
2023-02-28T05:01:46.722Z,98750.00
2023-02-28T05:05:48.105Z,98761.00
2023-02-28T05:09:49.236Z,98765.00
2023-02-28T05:13:51.580Z,98761.00
2023-02-28T05:17:52.600Z,98760.00
2023-02-28T05:21:55.501Z,98772.00
2023-02-28T05:25:57.291Z,98761.00
2023-02-28T05:29:59.450Z,98771.00
2023-02-28T05:34:00.939Z,98771.00
2023-02-28T05:38:02.439Z,98772.00
2023-02-28T05:42:03.933Z,98767.00
2023-02-28T05:46:10.235Z,98771.00
2023-02-28T05:50:11.795Z,98777.00
2023-02-28T05:54:14.013Z,98779.00
2023-02-28T05:58:14.994Z,98776.00
2023-02-28T06:02:17.700Z,98781.00
2023-02-28T06:06:18.873Z,98786.00
2023-02-28T06:10:20.067Z,98778.00
2023-02-28T06:14:21.555Z,98779.00
2023-02-28T06:18:22.608Z,98788.00
2023-02-28T06:22:24.118Z,98785.00
2023-02-28T06:26:26.118Z,98778.00
2023-02-28T06:30:29.052Z,98784.00
2023-02-28T06:34:30.027Z,98786.00
2023-02-28T06:38:31.894Z,98792.00
2023-02-28T06:42:33.003Z,98796.00
2023-02-28T06:46:34.136Z,98814.00
2023-02-28T06:50:35.093Z,98804.00
2023-02-28T06:54:37.154Z,98825.00
2023-02-28T06:58:39.675Z,98809.00
2023-02-28T07:02:40.815Z,98819.00
2023-02-28T07:06:42.217Z,98814.00
2023-02-28T07:10:43.630Z,98832.00
2023-02-28T07:14:44.762Z,98817.00
2023-02-28T07:18:45.932Z,98824.00
2023-02-28T07:22:48.742Z,98829.00
2023-02-28T07:26:49.790Z,98830.00
2023-02-28T07:30:50.887Z,98823.00
2023-02-28T07:34:51.912Z,98822.00
2023-02-28T07:38:53.495Z,98817.00
2023-02-28T07:42:54.553Z,98823.00
2023-02-28T07:46:55.529Z,98827.00
2023-02-28T07:50:57.730Z,98819.00
2023-02-28T07:54:58.841Z,98826.00
2023-02-28T07:58:59.804Z,98841.00
2023-02-28T08:03:01.100Z,98829.00
2023-02-28T08:07:02.275Z,98836.00
2023-02-28T08:11:03.889Z,98840.00
2023-02-28T08:15:06.039Z,98826.00
2023-02-28T08:23:16.162Z,98844.00
2023-02-28T08:27:17.850Z,98827.00
2023-02-28T08:31:19.916Z,98828.00
2023-02-28T08:35:21.159Z,98828.00
2023-02-28T08:39:22.275Z,98829.00
2023-02-28T08:43:23.366Z,98826.00
2023-02-28T08:47:24.441Z,98850.00
2023-02-28T08:51:29.024Z,98822.00
2023-02-28T08:55:30.500Z,98855.00
2023-02-28T08:59:32.684Z,98829.00
2023-02-28T09:03:33.676Z,98830.00
2023-02-28T09:07:34.883Z,98831.00
2023-02-28T09:11:36.360Z,98838.00
2023-02-28T09:15:38.326Z,98833.00
2023-02-28T09:19:39.308Z,98835.00
2023-02-28T09:23:41.711Z,98838.00
2023-02-28T09:27:43.183Z,98828.00
2023-02-28T09:31:44.172Z,98823.00
2023-02-28T09:35:45.287Z,98837.00
2023-02-28T09:39:46.290Z,98838.00
2023-02-28T09:43:51.327Z,98843.00
2023-02-28T09:47:56.027Z,98827.00
2023-02-28T09:52:00.570Z,98839.00
2023-02-28T09:56:14.588Z,98821.00
2023-02-28T10:00:22.512Z,98829.00
2023-02-28T10:04:55.762Z,98834.00
2023-02-28T10:09:06.368Z,98830.00
2023-02-28T10:13:19.976Z,98839.00
2023-02-28T10:17:30.810Z,98832.00
2023-02-28T10:21:41.605Z,98835.00
2023-02-28T10:25:48.391Z,98846.00
2023-02-28T10:29:52.487Z,98826.00
2023-02-28T10:33:53.497Z,98831.00
2023-02-28T10:37:57.633Z,98841.00
2023-02-28T10:41:58.610Z,98835.00
2023-02-28T10:46:14.318Z,98828.00
2023-02-28T10:50:38.599Z,98835.00
2023-02-28T10:54:41.237Z,98846.00
2023-02-28T10:59:00.964Z,98839.00
2023-02-28T11:03:02.220Z,98842.00
2023-02-28T11:07:06.777Z,98834.00
2023-02-28T11:11:07.989Z,98822.00
2023-02-28T11:15:31.479Z,98837.00
2023-02-28T11:19:39.037Z,98835.00
2023-02-28T11:23:41.860Z,98827.00
2023-02-28T11:27:49.940Z,98831.00
2023-02-28T11:32:03.921Z,98818.00
2023-02-28T11:36:11.048Z,98810.00
2023-02-28T11:40:18.401Z,98821.00
2023-02-28T11:44:23.353Z,98812.00
2023-02-28T11:48:43.947Z,98806.00
2023-02-28T11:52:54.675Z,98807.00
2023-02-28T11:56:59.520Z,98808.00
2023-02-28T12:01:26.852Z,98813.00
2023-02-28T12:05:31.771Z,98809.00
2023-02-28T12:09:54.516Z,98821.00
2023-02-28T12:14:14.630Z,98829.00
2023-02-28T12:18:22.201Z,98822.00
2023-02-28T12:22:30.659Z,98821.00
2023-02-28T12:26:44.176Z,98821.00
2023-02-28T12:31:00.528Z,98816.00
2023-02-28T12:35:08.113Z,98822.00
2023-02-28T12:39:13.185Z,98813.00
2023-02-28T12:43:17.229Z,98837.00
2023-02-28T12:47:19.452Z,98813.00
2023-02-28T12:51:21.516Z,98815.00
2023-02-28T12:55:29.240Z,98828.00
2023-02-28T12:59:40.365Z,98812.00
2023-02-28T13:04:10.226Z,98811.00
2023-02-28T13:08:28.322Z,98798.00
2023-02-28T13:12:29.662Z,98811.00
2023-02-28T13:16:53.042Z,98780.00
2023-02-28T13:20:54.281Z,98807.00
2023-02-28T13:24:56.834Z,98811.00
2023-02-28T13:29:01.394Z,98801.00
2023-02-28T13:33:09.591Z,98805.00
2023-02-28T13:37:26.535Z,98796.00
2023-02-28T13:41:37.606Z,98793.00
2023-02-28T13:45:39.965Z,98799.00
2023-02-28T13:49:41.612Z,98792.00
2023-02-28T13:53:48.822Z,98777.00
2023-02-28T13:58:10.309Z,98771.00
2023-02-28T14:02:21.365Z,98799.00
2023-02-28T14:06:30.894Z,98788.00
2023-02-28T14:10:36.167Z,98780.00
2023-02-28T14:14:40.984Z,98788.00
2023-02-28T14:19:04.379Z,98768.00
2023-02-28T14:23:09.469Z,98784.00
2023-02-28T14:27:23.212Z,98782.00
2023-02-28T14:31:28.027Z,98784.00
2023-02-28T14:35:41.735Z,98765.00
2023-02-28T14:39:44.178Z,98769.00
2023-02-28T14:43:51.017Z,98763.00
2023-02-28T14:47:53.002Z,98759.00
2023-02-28T14:52:15.468Z,98772.00
2023-02-28T14:56:37.268Z,98763.00
2023-02-28T15:00:50.712Z,98769.00
2023-02-28T15:05:01.181Z,98785.00
2023-02-28T15:09:19.182Z,98774.00
2023-02-28T15:13:20.792Z,98769.00
2023-02-28T15:17:25.210Z,98784.00
2023-02-28T15:21:38.880Z,98767.00
2023-02-28T15:25:40.770Z,98768.00
2023-02-28T15:29:49.855Z,98757.00
2023-02-28T15:33:56.084Z,98755.00
2023-02-28T15:38:03.445Z,98764.00
2023-02-28T15:42:20.365Z,98755.00
2023-02-28T15:46:21.936Z,98760.00
2023-02-28T15:50:23.357Z,98762.00
2023-02-28T15:54:35.530Z,98760.00
2023-02-28T15:58:37.515Z,98755.00
2023-02-28T16:02:40.357Z,98748.00
2023-02-28T16:06:43.697Z,98763.00
2023-02-28T16:10:45.765Z,98761.00
2023-02-28T16:14:51.194Z,98768.00
2023-02-28T16:18:53.158Z,98763.00
2023-02-28T16:22:54.660Z,98764.00
2023-02-28T16:26:57.381Z,98762.00
2023-02-28T16:31:02.811Z,98776.00
2023-02-28T16:35:06.368Z,98776.00
2023-02-28T16:39:07.422Z,98775.00
2023-02-28T16:43:12.283Z,98783.00
2023-02-28T16:47:13.417Z,98804.00
2023-02-28T16:51:18.547Z,98796.00
2023-02-28T16:55:20.382Z,98802.00
2023-02-28T16:59:26.854Z,98800.00
2023-02-28T17:03:33.408Z,98812.00
2023-02-28T17:07:32.050Z,98815.00
2023-02-28T17:11:33.358Z,98812.00
2023-02-28T17:15:35.518Z,98816.00
2023-02-28T17:19:38.522Z,98817.00
2023-02-28T17:23:39.716Z,98812.00
2023-02-28T17:27:41.057Z,98821.00
2023-02-28T17:31:42.565Z,98818.00
2023-02-28T17:35:43.624Z,98826.00
2023-02-28T17:39:45.110Z,98832.00
2023-02-28T17:43:46.498Z,98836.00
2023-02-28T17:47:50.581Z,98841.00
2023-02-28T17:51:51.865Z,98858.00
2023-02-28T17:55:53.008Z,98861.00
2023-02-28T17:59:54.048Z,98854.00
2023-02-28T18:03:56.076Z,98842.00
2023-02-28T18:07:57.491Z,98860.00
2023-02-28T18:12:00.437Z,98853.00
2023-02-28T18:16:01.675Z,98854.00
2023-02-28T18:20:04.855Z,98874.00
2023-02-28T18:24:06.272Z,98851.00
2023-02-28T18:28:07.372Z,98877.00
2023-02-28T18:32:09.424Z,98853.00
2023-02-28T18:36:10.565Z,98853.00
2023-02-28T18:40:14.181Z,98850.00
2023-02-28T18:44:20.867Z,98853.00
2023-02-28T18:48:20.145Z,98851.00
2023-02-28T18:52:21.323Z,98847.00
2023-02-28T18:56:24.354Z,98841.00
2023-02-28T19:00:25.740Z,98844.00
2023-02-28T19:04:27.288Z,98846.00
2023-02-28T19:08:28.506Z,98833.00
2023-02-28T19:12:35.375Z,98842.00
2023-02-28T19:16:36.794Z,98840.00
2023-02-28T19:20:38.385Z,98842.00
2023-02-28T19:24:39.721Z,98845.00
2023-02-28T19:28:41.440Z,98852.00
2023-02-28T19:32:43.197Z,98849.00
2023-02-28T19:36:44.612Z,98854.00
2023-02-28T19:40:46.142Z,98847.00
2023-02-28T19:44:47.312Z,98848.00
2023-02-28T19:48:48.467Z,98855.00
2023-02-28T19:52:49.966Z,98850.00
2023-02-28T19:56:54.017Z,98859.00
2023-02-28T20:00:55.203Z,98849.00
2023-02-28T20:04:58.652Z,98859.00
2023-02-28T20:09:00.214Z,98852.00
2023-02-28T20:13:01.994Z,98848.00
2023-02-28T20:17:05.449Z,98824.00
2023-02-28T20:21:12.392Z,98855.00
2023-02-28T20:25:13.925Z,98849.00
2023-02-28T20:29:15.214Z,98850.00
2023-02-28T20:33:17.410Z,98837.00
2023-02-28T20:37:19.026Z,98837.00
2023-02-28T20:41:21.213Z,98839.00
2023-02-28T20:45:23.965Z,98840.00
2023-02-28T20:49:25.482Z,98844.00
2023-02-28T20:53:27.670Z,98651.00
2023-02-28T20:57:29.903Z,98845.00
2023-02-28T21:01:31.520Z,98842.00
2023-02-28T21:05:32.605Z,98842.00
2023-02-28T21:09:34.165Z,98870.00
2023-02-28T21:13:35.828Z,98830.00
2023-02-28T21:17:36.987Z,98834.00
2023-02-28T21:21:42.697Z,98836.00
2023-02-28T21:25:44.109Z,98829.00
2023-02-28T21:29:45.400Z,98840.00
2023-02-28T21:33:47.141Z,98840.00
2023-02-28T21:37:48.279Z,98839.00
2023-02-28T21:41:49.553Z,98844.00
2023-02-28T21:45:50.572Z,98838.00
2023-02-28T21:49:51.561Z,98838.00
2023-02-28T21:53:53.579Z,98838.00
2023-02-28T21:57:54.592Z,98834.00
2023-02-28T22:01:55.820Z,98845.00
2023-02-28T22:05:56.955Z,98848.00
2023-02-28T22:09:58.120Z,98849.00
2023-02-28T22:13:59.306Z,98845.00
2023-02-28T22:18:00.433Z,98839.00
2023-02-28T22:22:01.434Z,98856.00
2023-02-28T22:26:04.829Z,98850.00
2023-02-28T22:30:06.764Z,98848.00
2023-02-28T22:34:10.322Z,98847.00
2023-02-28T22:38:12.126Z,98853.00
2023-02-28T22:42:13.266Z,98848.00
2023-02-28T22:46:14.320Z,98858.00
2023-02-28T22:50:15.925Z,98858.00
2023-02-28T22:54:17.184Z,98854.00
2023-02-28T22:58:19.238Z,98855.00
2023-02-28T23:02:20.892Z,98854.00
2023-02-28T23:06:31.243Z,98858.00
2023-02-28T23:10:32.427Z,98861.00
2023-02-28T23:14:33.729Z,98871.00
2023-02-28T23:18:34.714Z,98864.00
2023-02-28T23:22:35.778Z,98869.00
2023-02-28T23:26:43.213Z,98854.00
2023-02-28T23:30:44.269Z,98857.00
2023-02-28T23:34:45.192Z,98861.00
2023-02-28T23:38:48.531Z,98849.00
2023-02-28T23:42:50.557Z,98859.00
2023-02-28T23:46:52.461Z,98863.00
2023-02-28T23:50:55.452Z,98849.00
2023-02-28T23:54:56.465Z,98858.00
2023-02-28T23:58:58.067Z,98848.00
